TimeCDT,TemperatureF,Dew PointF,Humidity,Sea Level PressureIn,VisibilityMPH,Wind Direction,Wind SpeedMPH,Gust SpeedMPH,PrecipitationIn,Events,Conditions,WindDirDegrees,DateUTC
12:54 AM,36.0,34.0,93,30.06,7.0,ENE,4.6,-,N/A,,Overcast,60,2013-04-09 05:54:00
1:42 AM,35.6,33.8,93,30.01,7.0,ENE,6.9,-,N/A,,Overcast,70,2013-04-09 06:42:00
1:54 AM,36.0,34.0,93,30.04,7.0,NE,6.9,-,N/A,,Overcast,50,2013-04-09 06:54:00
2:54 AM,36.0,34.0,93,30.01,6.0,ENE,9.2,-,N/A,,Overcast,70,2013-04-09 07:54:00
3:50 AM,35.6,33.8,93,30.01,5.0,ESE,5.8,-,N/A,,Overcast,110,2013-04-09 08:50:00
3:54 AM,35.1,34.0,96,30.05,4.0,ESE,6.9,-,N/A,,Overcast,120,2013-04-09 08:54:00
4:54 AM,34.0,33.1,96,30.04,2.0,ENE,8.1,-,N/A,,Overcast,70,2013-04-09 09:54:00
5:01 AM,33.8,33.8,100,29.99,1.2,NE,9.2,-,N/A,,Overcast,40,2013-04-09 10:01:00
5:54 AM,34.0,33.1,96,30.05,1.2,ENE,9.2,-,N/A,,Overcast,60,2013-04-09 10:54:00
6:05 AM,33.8,33.8,100,30.02,3.0,NE,9.2,-,N/A,,Overcast,50,2013-04-09 11:05:00
6:54 AM,34.0,33.1,96,30.06,4.0,East,8.1,-,N/A,,Overcast,80,2013-04-09 11:54:00
7:17 AM,33.8,33.8,100,30.00,2.5,ENE,8.1,-,N/A,,Overcast,60,2013-04-09 12:17:00
7:33 AM,33.8,33.8,100,29.99,4.0,NE,12.7,-,N/A,,Overcast,40,2013-04-09 12:33:00
7:54 AM,35.1,33.1,92,30.04,5.0,NE,11.5,-,N/A,,Overcast,40,2013-04-09 12:54:00
8:05 AM,35.6,33.8,93,30.02,6.0,ENE,9.2,-,N/A,,Overcast,70,2013-04-09 13:05:00
8:23 AM,35.6,33.8,93,30.01,6.0,ENE,9.2,-,N/A,,Overcast,70,2013-04-09 13:23:00
8:54 AM,35.1,33.1,92,30.04,4.0,ENE,12.7,-,0.00,Rain,Light Rain,60,2013-04-09 13:54:00
9:07 AM,35.6,33.8,93,29.98,2.0,NE,12.7,-,0.01,Rain,Rain,50,2013-04-09 14:07:00
9:22 AM,35.6,33.8,93,29.98,3.0,NE,12.7,-,0.01,Rain,Light Rain,40,2013-04-09 14:22:00
9:54 AM,35.1,34.0,96,30.01,5.0,NE,13.8,-,0.02,,Overcast,50,2013-04-09 14:54:00
10:54 AM,36.0,34.0,93,30.02,8.0,NE,12.7,-,0.00,Rain,Light Rain,50,2013-04-09 15:54:00
11:54 AM,36.0,35.1,97,30.04,3.0,NE,10.4,-,0.13,Rain,Rain,40,2013-04-09 16:54:00
12:27 PM,37.4,35.6,93,30.02,2.5,NNE,5.8,-,0.10,Rain,Heavy Rain,20,2013-04-09 17:27:00
12:47 PM,37.4,35.6,93,30.01,2.0,NE,6.9,-,0.21,Rain,Rain,50,2013-04-09 17:47:00
12:54 PM,37.0,36.0,96,30.04,2.5,NE,11.5,-,0.23,Rain,Heavy Rain,50,2013-04-09 17:54:00
1:05 PM,37.4,35.6,93,29.99,2.5,ENE,11.5,-,0.05,Rain,Rain,60,2013-04-09 18:05:00
1:16 PM,37.4,35.6,93,29.97,3.0,NE,12.7,20.7,0.06,Rain,Light Rain,50,2013-04-09 18:16:00
1:54 PM,37.0,36.0,96,30.04,4.0,NNE,12.7,-,0.08,Rain,Rain,30,2013-04-09 18:54:00
2:54 PM,37.9,36.0,93,30.04,10.0,NE,21.9,29.9,0.03,Rain,Light Rain,50,2013-04-09 19:54:00
3:05 PM,39.2,35.6,87,29.99,10.0,NE,19.6,28.8,0.00,,Overcast,50,2013-04-09 20:05:00
3:14 PM,39.2,35.6,87,29.99,10.0,NE,21.9,29.9,0.00,,Overcast,50,2013-04-09 20:14:00
3:54 PM,39.0,36.0,89,30.04,10.0,NE,20.7,28.8,0.00,,Overcast,50,2013-04-09 20:54:00
4:54 PM,39.0,35.1,86,30.05,10.0,ENE,15.0,25.3,N/A,,Overcast,60,2013-04-09 21:54:00
5:54 PM,37.9,34.0,86,30.08,10.0,NE,12.7,20.7,N/A,,Overcast,50,2013-04-09 22:54:00
6:14 PM,37.4,33.8,87,30.03,10.0,ENE,13.8,-,N/A,,Overcast,60,2013-04-09 23:14:00
6:54 PM,37.0,33.1,86,30.11,10.0,ENE,9.2,-,N/A,,Overcast,60,2013-04-09 23:54:00
7:54 PM,37.0,30.0,76,30.10,10.0,NE,12.7,18.4,N/A,,Overcast,40,2013-04-10 00:54:00
8:12 PM,35.6,28.4,75,30.05,10.0,NE,12.7,23.0,N/A,,Overcast,40,2013-04-10 01:12:00
8:54 PM,36.0,28.0,73,30.09,10.0,NE,11.5,-,N/A,,Overcast,50,2013-04-10 01:54:00
9:54 PM,35.1,27.0,72,30.09,10.0,ENE,15.0,-,N/A,,Overcast,60,2013-04-10 02:54:00
10:54 PM,34.0,27.0,75,30.10,9.0,East,6.9,-,0.01,Rain,Light Rain,90,2013-04-10 03:54:00
11:15 PM,33.8,26.6,75,30.04,7.0,East,13.8,-,0.04,Rain,Light Freezing Rain,80,2013-04-10 04:15:00
11:25 PM,33.8,26.6,75,30.02,9.0,ENE,15.0,-,0.05,Rain,Light Freezing Rain,60,2013-04-10 04:25:00
11:54 PM,33.1,26.1,75,30.12,8.0,East,8.1,-,0.08,Rain,Light Freezing Rain,90,2013-04-10 04:54:00